Hlavní strana
METAR-TAF:

METAR-TAF

Letiště :

Letiště Hirošima

Hirošima, Japonsko

zeměpisná šířka: 34-26N, zeměpisná délka: 132-55E, výška: 331 m

Aktuální stav počasí

Zpráva byla vytvořena před 53 minutami, v 01:00 UTC
Západojihozápadní vítr 3 kt, proměnlivý mezi jihojihozápadním a západním
Teplota 6°C
Vlhkost vzduchu 65%
Tlak 1030 hPa
Viditelnost 10 km a více
Skoro jasno ve výšce 2000 ft
Polojasno ve výšce 10000 ft
Oblačno až skoro zataženo

METAR: RJOA 200100Z 25003KT 200V280 9999 FEW020 SCT100 BKN/// 06/M00 Q1030

Čas: 10:53 (01:53 UTC)

Předpověď počasí

Zpráva byla vytvořena před 2 hodinami a 48 minutami, v 23:05 UTC
Předpověď platná od 20 v 00 UTC do 21 v 06 UTC
Jihovýchodní vítr 4 kt
Viditelnost 10 km a více
Skoro jasno ve výšce 3000 ft

TAF: RJOA 192305Z 2000/2106 14004KT 9999 FEW030

Stav a předpovědi počasí z více než 4 000 letišť (zprávy METAR a TAF).

Červené a žluté tečky na mapě představují dostupné meteorologické stanice.

Když kurzor umístíte na tečku, zobrazí se název stanice.

Pak kliknutím zobrazíte stav a předpověď počasí.

Chcete-li změnit mapu, kliknutím na zelené tlačítko se znaménkem +mapu přiblížíte, kliknutím na zelené tlačítko se znaménkem – mapu oddálíte a kliknutím na zelené šipky přejdete na sousední mapy.


METAR-TAF: